»·PEaware :: UAL724 PHNL-KSFO

UAL724 :: PHNL-KSFO

FLIGHT INFORMATION

Flight Status: Arrived
Operator:
United Airlines
More flights by this operator :: More flights under this callsign
Pilot: Henderson P. (1210)
Aircraft: BOEING 777-200
(B772)
More flights by this aircraft type
Origin: PHNL Honolulu Intl
United States
Destination: KSFO San Francisco Intl
United States
More flights between these airports :: More routes between these airports
Route: +MKK4 APACK R463 AUNTI 3000N14800W 3300N14200W 3600N13500W ALCOA PIRAT OSI
File this flight plan on PilotEdge
Remarks:
Altitude:
(Current/Filed)
37,000ft
Speed:
(Current/Filed)
483kts
Departed: 10-Sep-18 03:24 PM
Arrived: 10-Sep-18 07:44 PM
Distance/Time
Traveled:
2081nm/4:20
Distance/Time
To Go:
Arrived

Flight Plot

Page will automatically refresh every two minutes.

Flight plan parsing failed; only flown route is shown


Map Options




Map Legend


Flown Route
Filed Route
Departure Airport
Arrival Airport
Navaid (VOR, NDB)
Fix

Horizontal Profiles

Position Reports

Time Latitude Longitude Heading Altitude Ground
Speed
10-Sep-18 14:48 21.329388 -157.917337 72 26ft 0kts
10-Sep-18 14:49 21.329388 -157.917337 72 26ft 0kts
10-Sep-18 14:50 21.329388 -157.917337 72 26ft 0kts
10-Sep-18 14:51 21.329388 -157.917337 72 26ft 0kts
10-Sep-18 14:52 21.329388 -157.917337 72 26ft 0kts
10-Sep-18 14:53 21.329388 -157.917337 72 26ft 0kts
10-Sep-18 14:54 21.329388 -157.917337 72 26ft 0kts
10-Sep-18 14:55 21.329388 -157.917337 72 26ft 0kts
10-Sep-18 14:56 21.329388 -157.917337 72 26ft 0kts
10-Sep-18 14:57 21.329388 -157.917337 72 26ft 0kts
10-Sep-18 14:58 21.329388 -157.917337 72 26ft 0kts
10-Sep-18 14:59 21.329388 -157.917337 72 26ft 0kts
10-Sep-18 15:00 21.329388 -157.917337 72 26ft 0kts
10-Sep-18 15:01 21.329388 -157.917337 72 26ft 0kts
10-Sep-18 15:02 21.329388 -157.917337 72 26ft 0kts
10-Sep-18 15:03 21.329388 -157.917337 72 26ft 0kts
10-Sep-18 15:04 21.329388 -157.917337 72 26ft 0kts
10-Sep-18 15:05 21.329388 -157.917337 72 26ft 0kts
10-Sep-18 15:06 21.329348 -157.917473 74 26ft 2kts
10-Sep-18 15:07 21.329302 -157.918130 114 26ft 2kts
10-Sep-18 15:08 21.329692 -157.918252 189 26ft 2kts
10-Sep-18 15:09 21.329712 -157.918248 189 26ft 0kts
10-Sep-18 15:10 21.329712 -157.918248 189 26ft 0kts
10-Sep-18 15:11 21.329712 -157.918248 189 26ft 0kts
10-Sep-18 15:12 21.329455 -157.918293 189 26ft 9kts
10-Sep-18 15:13 21.327748 -157.920153 269 26ft 13kts
10-Sep-18 15:14 21.327725 -157.924301 258 26ft 12kts
10-Sep-18 15:15 21.327043 -157.927426 293 26ft 9kts
10-Sep-18 15:16 21.327434 -157.930861 271 26ft 13kts
10-Sep-18 15:17 21.327422 -157.934410 270 26ft 12kts
10-Sep-18 15:18 21.327422 -157.938547 269 26ft 12kts
10-Sep-18 15:19 21.326181 -157.941310 209 26ft 11kts
10-Sep-18 15:20 21.322759 -157.943362 209 26ft 15kts
10-Sep-18 15:21 21.318807 -157.945705 209 26ft 16kts
10-Sep-18 15:22 21.314710 -157.946334 172 26ft 13kts
10-Sep-18 15:23 21.311065 -157.945861 173 26ft 12kts
10-Sep-18 15:24 21.307653 -157.945683 180 26ft 11kts
10-Sep-18 15:25 21.306806 -157.945090 88 26ft 0kts
10-Sep-18 15:26 21.306812 -157.941494 89 26ft 78kts
10-Sep-18 15:27 21.296682 -157.896387 142 2280ft 202kts
10-Sep-18 15:28 21.232781 -157.878074 134 4794ft 269kts
10-Sep-18 15:29 21.183041 -157.814045 129 8408ft 289kts
10-Sep-18 15:30 21.133709 -157.741215 105 11141ft 328kts
10-Sep-18 15:31 21.153914 -157.638251 58 13094ft 384kts
10-Sep-18 15:32 21.231022 -157.555138 41 15965ft 404kts
10-Sep-18 15:33 21.316648 -157.472948 41 18745ft 422kts
10-Sep-18 15:34 21.405792 -157.387020 40 21170ft 439kts
10-Sep-18 15:35 21.497969 -157.297989 40 23308ft 454kts
10-Sep-18 15:36 21.593440 -157.205612 40 25196ft 470kts
10-Sep-18 15:37 21.692396 -157.109801 41 27007ft 486kts
10-Sep-18 15:38 21.794150 -157.010861 40 28767ft 501kts
10-Sep-18 15:39 21.918338 -156.941471 15 30576ft 510kts
10-Sep-18 15:40 22.054532 -156.903375 11 33182ft 503kts
10-Sep-18 15:41 22.188854 -156.864856 11 35602ft 496kts
10-Sep-18 15:42 22.322001 -156.826330 11 37026ft 495kts
10-Sep-18 15:43 22.454552 -156.787810 11 37006ft 493kts
10-Sep-18 15:44 22.586864 -156.749324 11 37002ft 493kts
10-Sep-18 15:45 22.719631 -156.710539 11 37009ft 494kts
10-Sep-18 15:46 22.852119 -156.671777 11 37009ft 495kts
10-Sep-18 15:47 22.985077 -156.632744 11 37014ft 495kts
10-Sep-18 15:48 23.118077 -156.593641 11 37014ft 496kts
10-Sep-18 15:49 23.251545 -156.554432 11 37014ft 496kts
10-Sep-18 15:50 23.384932 -156.515086 11 37013ft 498kts
10-Sep-18 15:51 23.518738 -156.475533 11 37015ft 498kts
10-Sep-18 15:52 23.652475 -156.435906 10 37001ft 499kts
10-Sep-18 15:53 23.786559 -156.396156 10 36973ft 499kts
10-Sep-18 15:54 23.921063 -156.356107 10 36972ft 500kts
10-Sep-18 15:55 24.052652 -156.306258 30 36970ft 513kts
10-Sep-18 15:56 24.138073 -156.179744 57 36990ft 523kts
10-Sep-18 15:57 24.218484 -156.047845 52 37046ft 521kts
10-Sep-18 15:58 24.302714 -155.918327 52 37127ft 521kts
10-Sep-18 15:59 24.386451 -155.788103 52 37130ft 522kts
10-Sep-18 16:00 24.469867 -155.657895 52 37132ft 523kts
10-Sep-18 16:01 24.553631 -155.527007 52 37121ft 523kts
10-Sep-18 16:02 24.637048 -155.396066 53 37002ft 524kts
10-Sep-18 16:03 24.720809 -155.264227 52 36997ft 525kts
10-Sep-18 16:04 24.814810 -155.142073 45 36997ft 523kts
10-Sep-18 16:05 24.910830 -155.021195 46 36973ft 525kts
10-Sep-18 16:06 25.006137 -154.899892 46 36930ft 525kts
10-Sep-18 16:07 25.101587 -154.777796 47 36926ft 526kts
10-Sep-18 16:08 25.197157 -154.655029 47 36922ft 527kts
10-Sep-18 16:09 25.292544 -154.532148 47 36919ft 528kts
10-Sep-18 16:10 25.388247 -154.408531 47 36916ft 529kts
10-Sep-18 16:11 25.484058 -154.284439 47 36912ft 531kts
10-Sep-18 16:12 25.580062 -154.159766 47 36909ft 532kts
10-Sep-18 16:13 25.675608 -154.035360 47 36901ft 529kts
10-Sep-18 16:14 25.770989 -153.910816 47 36899ft 529kts
10-Sep-18 16:15 25.866377 -153.785930 48 36896ft 529kts
10-Sep-18 16:16 25.961355 -153.661243 48 36894ft 529kts
10-Sep-18 16:17 26.056224 -153.536355 48 36892ft 530kts
10-Sep-18 16:18 26.151626 -153.410420 48 36889ft 530kts
10-Sep-18 16:19 26.246263 -153.285146 48 36888ft 530kts
10-Sep-18 16:20 26.341124 -153.159236 48 36886ft 529kts
10-Sep-18 16:21 26.435632 -153.033428 48 36884ft 529kts
10-Sep-18 16:22 26.530040 -152.907401 48 36883ft 529kts
10-Sep-18 16:23 26.624252 -152.781284 49 36881ft 529kts
10-Sep-18 16:24 26.718574 -152.654662 49 36880ft 531kts
10-Sep-18 16:25 26.812957 -152.527598 49 36879ft 531kts
10-Sep-18 16:26 26.907493 -152.399958 49 36880ft 532kts
10-Sep-18 16:27 27.001672 -152.272435 49 36879ft 532kts
10-Sep-18 16:28 27.096254 -152.143993 49 36878ft 534kts
10-Sep-18 16:29 27.190725 -152.015327 49 36877ft 535kts
10-Sep-18 16:30 27.285613 -151.885712 50 36877ft 538kts
10-Sep-18 16:31 27.380440 -151.755792 50 36876ft 538kts
10-Sep-18 16:32 27.475478 -151.625194 50 36876ft 538kts
10-Sep-18 16:33 27.570301 -151.494499 50 36875ft 538kts
10-Sep-18 16:34 27.664963 -151.363633 50 36875ft 538kts
10-Sep-18 16:35 27.759333 -151.232776 50 36875ft 538kts
10-Sep-18 16:36 27.853768 -151.101425 50 36875ft 538kts
10-Sep-18 16:37 27.948089 -150.969833 50 36875ft 537kts
10-Sep-18 16:38 28.042065 -150.838323 50 36875ft 539kts
10-Sep-18 16:39 28.136402 -150.705890 50 36874ft 539kts
10-Sep-18 16:40 28.230570 -150.573287 51 36875ft 539kts
10-Sep-18 16:41 28.324482 -150.440631 51 36875ft 539kts
10-Sep-18 16:42 28.418379 -150.307579 51 36875ft 539kts
10-Sep-18 16:43 28.512017 -150.174476 51 36875ft 539kts
10-Sep-18 16:44 28.605421 -150.041285 51 36875ft 539kts
10-Sep-18 16:45 28.699123 -149.907244 51 36876ft 539kts
10-Sep-18 16:46 28.792592 -149.773105 51 36785ft 540kts
10-Sep-18 16:47 28.885804 -149.638907 51 36783ft 540kts
10-Sep-18 16:48 28.979072 -149.504193 51 36702ft 541kts
10-Sep-18 16:49 29.072306 -149.369091 51 36662ft 542kts
10-Sep-18 16:50 29.165702 -149.233312 51 36634ft 542kts
10-Sep-18 16:51 29.258608 -149.097798 52 36604ft 542kts
10-Sep-18 16:52 29.351615 -148.961691 52 36603ft 542kts
10-Sep-18 16:53 29.444138 -148.825843 52 36578ft 542kts
10-Sep-18 16:54 29.537136 -148.688842 52 36579ft 543kts
10-Sep-18 16:55 29.629777 -148.551909 52 36581ft 543kts
10-Sep-18 16:56 29.722218 -148.414809 52 36607ft 544kts
10-Sep-18 16:57 29.814874 -148.277075 52 36611ft 545kts
10-Sep-18 16:58 29.907537 -148.138808 52 36652ft 546kts
10-Sep-18 16:59 29.999938 -148.000004 53 36654ft 545kts
10-Sep-18 17:00 30.081116 -147.851895 60 36722ft 545kts
10-Sep-18 17:01 30.159601 -147.702495 59 36789ft 544kts
10-Sep-18 17:02 30.226206 -147.578290 59 36805ft 545kts
10-Sep-18 17:03 30.318797 -147.404938 59 36868ft 544kts
10-Sep-18 17:04 30.384793 -147.280656 59 36870ft 544kts
10-Sep-18 17:05 30.463976 -147.130997 59 36871ft 543kts
10-Sep-18 17:06 30.542676 -146.981684 59 36872ft 543kts
10-Sep-18 17:07 30.621155 -146.832222 59 36874ft 542kts
10-Sep-18 17:08 30.699402 -146.682636 59 36875ft 541kts
10-Sep-18 17:09 30.777466 -146.532831 59 36877ft 541kts
10-Sep-18 17:10 30.855296 -146.382898 59 36875ft 541kts
10-Sep-18 17:11 30.932819 -146.232984 59 36876ft 542kts
10-Sep-18 17:12 31.010656 -146.081892 59 36880ft 542kts
10-Sep-18 17:13 31.088197 -145.930757 59 36879ft 542kts
10-Sep-18 17:14 31.165285 -145.779948 59 36883ft 542kts
10-Sep-18 17:15 31.242251 -145.628761 59 36882ft 542kts
10-Sep-18 17:16 31.319185 -145.477052 60 36884ft 542kts
10-Sep-18 17:17 31.395929 -145.325119 60 36886ft 542kts
10-Sep-18 17:18 31.472293 -145.173339 60 36888ft 542kts
10-Sep-18 17:19 31.548684 -145.020893 60 36889ft 541kts
10-Sep-18 17:20 31.624747 -144.868496 60 36891ft 540kts
10-Sep-18 17:21 31.700235 -144.716641 60 36893ft 540kts
10-Sep-18 17:22 31.775945 -144.563729 60 36895ft 540kts
10-Sep-18 17:23 31.851073 -144.411374 60 36896ft 540kts
10-Sep-18 17:24 31.926453 -144.257889 60 36898ft 540kts
10-Sep-18 17:25 32.001284 -144.104896 60 36900ft 540kts
10-Sep-18 17:26 32.076049 -143.951411 60 36902ft 540kts
10-Sep-18 17:27 32.150747 -143.797433 60 36904ft 540kts
10-Sep-18 17:28 32.225002 -143.643732 60 36906ft 540kts
10-Sep-18 17:29 32.299487 -143.488911 60 36908ft 541kts
10-Sep-18 17:30 32.373490 -143.334450 60 36910ft 540kts
10-Sep-18 17:31 32.447120 -143.180123 60 36912ft 539kts
10-Sep-18 17:32 32.520682 -143.025296 60 36914ft 539kts
10-Sep-18 17:33 32.594101 -142.870105 60 36916ft 538kts
10-Sep-18 17:34 32.667185 -142.714971 60 36918ft 538kts
10-Sep-18 17:35 32.739945 -142.559865 60 36920ft 538kts
10-Sep-18 17:36 32.812637 -142.404241 61 36923ft 538kts
10-Sep-18 17:37 32.885306 -142.248676 61 36925ft 538kts
10-Sep-18 17:38 32.957387 -142.092524 61 36913ft 539kts
10-Sep-18 17:39 33.029943 -141.936275 60 36917ft 538kts
10-Sep-18 17:40 33.103113 -141.780614 60 36920ft 538kts
10-Sep-18 17:41 33.175904 -141.624832 60 36921ft 539kts
10-Sep-18 17:42 33.249510 -141.468592 60 36924ft 539kts
10-Sep-18 17:43 33.322365 -141.312150 60 36926ft 539kts
10-Sep-18 17:44 33.395040 -141.155259 60 36928ft 539kts
10-Sep-18 17:45 33.467286 -140.998590 60 36931ft 539kts
10-Sep-18 17:46 33.539656 -140.840957 61 36933ft 538kts
10-Sep-18 17:47 33.611487 -140.683818 61 36937ft 538kts
10-Sep-18 17:48 33.683390 -140.525788 61 36934ft 539kts
10-Sep-18 17:49 33.755002 -140.367711 61 36936ft 540kts
10-Sep-18 17:50 33.826620 -140.208906 61 36938ft 540kts
10-Sep-18 17:51 33.897965 -140.049989 61 36940ft 541kts
10-Sep-18 17:52 33.969242 -139.890514 61 36943ft 541kts
10-Sep-18 17:53 34.040321 -139.730729 61 36945ft 541kts
10-Sep-18 17:54 34.111200 -139.570672 61 36939ft 541kts
10-Sep-18 17:55 34.181786 -139.410536 61 36941ft 542kts
10-Sep-18 17:56 34.252567 -139.249216 61 36944ft 542kts
10-Sep-18 17:57 34.322731 -139.088554 61 36946ft 541kts
10-Sep-18 17:58 34.393051 -138.926780 61 36948ft 540kts
10-Sep-18 17:59 34.462509 -138.766238 61 36951ft 540kts
10-Sep-18 18:00 34.531812 -138.605301 61 36962ft 539kts
10-Sep-18 18:01 34.601251 -138.443279 61 36962ft 538kts
10-Sep-18 18:02 34.670060 -138.281971 62 36965ft 538kts
10-Sep-18 18:03 34.738856 -138.119915 62 36963ft 538kts
10-Sep-18 18:04 34.807053 -137.958503 62 36965ft 539kts
10-Sep-18 18:05 34.875454 -137.795830 62 36967ft 539kts
10-Sep-18 18:06 34.943746 -137.632625 62 36969ft 540kts
10-Sep-18 18:07 35.011550 -137.469800 62 36971ft 541kts
10-Sep-18 18:08 35.079845 -137.304989 62 36973ft 542kts
10-Sep-18 18:09 35.147290 -137.141424 62 36975ft 542kts
10-Sep-18 18:10 35.214996 -136.976417 62 36976ft 542kts
10-Sep-18 18:11 35.282682 -136.810629 62 36979ft 542kts
10-Sep-18 18:12 35.349922 -136.645111 62 36980ft 543kts
10-Sep-18 18:13 35.416881 -136.479443 62 36982ft 543kts
10-Sep-18 18:14 35.483737 -136.313207 62 36979ft 545kts
10-Sep-18 18:15 35.550712 -136.145816 62 36976ft 546kts
10-Sep-18 18:16 35.617529 -135.977960 62 36973ft 547kts
10-Sep-18 18:17 35.684119 -135.809809 62 36982ft 547kts
10-Sep-18 18:18 35.750499 -135.641315 62 36986ft 546kts
10-Sep-18 18:19 35.816561 -135.472752 63 36988ft 545kts
10-Sep-18 18:20 35.882355 -135.304774 62 36988ft 544kts
10-Sep-18 18:21 35.947581 -135.136207 63 36989ft 543kts
10-Sep-18 18:22 36.009850 -134.966800 69 36991ft 543kts
10-Sep-18 18:23 36.052663 -134.786289 74 36992ft 548kts
10-Sep-18 18:24 36.094694 -134.605660 73 36984ft 547kts
10-Sep-18 18:25 36.138346 -134.425351 73 36982ft 546kts
10-Sep-18 18:26 36.181171 -134.245468 73 36984ft 545kts
10-Sep-18 18:27 36.223648 -134.065233 73 36986ft 545kts
10-Sep-18 18:28 36.265701 -133.885400 73 36990ft 544kts
10-Sep-18 18:29 36.307638 -133.704710 73 36992ft 545kts
10-Sep-18 18:30 36.349215 -133.524205 73 36994ft 546kts
10-Sep-18 18:31 36.390534 -133.343445 73 36988ft 546kts
10-Sep-18 18:32 36.431861 -133.161253 73 36989ft 546kts
10-Sep-18 18:33 36.472832 -132.979218 74 36985ft 546kts
10-Sep-18 18:34 36.513240 -132.798278 74 36987ft 545kts
10-Sep-18 18:35 36.553688 -132.615733 74 36988ft 545kts
10-Sep-18 18:36 36.593623 -132.434063 74 36990ft 545kts
10-Sep-18 18:37 36.633317 -132.252050 74 36991ft 544kts
10-Sep-18 18:38 36.672618 -132.070387 74 36989ft 544kts
10-Sep-18 18:39 36.711531 -131.889054 74 36989ft 543kts
10-Sep-18 18:40 36.750261 -131.707116 74 36988ft 543kts
10-Sep-18 18:41 36.788815 -131.524505 74 36990ft 544kts
10-Sep-18 18:42 36.827250 -131.340934 74 36992ft 545kts
10-Sep-18 18:43 36.865278 -131.157799 75 36993ft 545kts
10-Sep-18 18:44 36.902984 -130.974669 75 36995ft 545kts
10-Sep-18 18:45 36.940497 -130.790921 75 37023ft 545kts
10-Sep-18 18:46 36.977770 -130.606791 75 37028ft 545kts
10-Sep-18 18:47 37.014667 -130.422931 75 37029ft 545kts
10-Sep-18 18:48 37.051180 -130.239401 75 37031ft 546kts
10-Sep-18 18:49 37.087667 -130.054382 75 37032ft 546kts
10-Sep-18 18:50 37.123753 -129.869775 75 37033ft 546kts
10-Sep-18 18:51 37.159564 -129.684923 75 37034ft 546kts
10-Sep-18 18:52 37.195166 -129.499496 76 37036ft 546kts
10-Sep-18 18:53 37.230268 -129.314999 76 37038ft 546kts
10-Sep-18 18:54 37.265340 -129.128962 76 37039ft 546kts
10-Sep-18 18:55 37.299941 -128.943734 76 37040ft 545kts
10-Sep-18 18:56 37.334199 -128.758626 76 37041ft 546kts
10-Sep-18 18:57 37.368406 -128.572033 76 37042ft 546kts
10-Sep-18 18:58 37.402224 -128.385818 76 37043ft 547kts
10-Sep-18 18:59 37.435773 -128.199288 76 37043ft 548kts
10-Sep-18 19:00 37.469101 -128.012196 76 37045ft 549kts
10-Sep-18 19:01 37.502247 -127.824296 76 37012ft 549kts
10-Sep-18 19:02 37.534960 -127.636999 77 37019ft 548kts
10-Sep-18 19:03 37.567382 -127.449511 77 37022ft 547kts
10-Sep-18 19:04 37.599472 -127.262051 77 37013ft 546kts
10-Sep-18 19:05 37.631155 -127.075128 77 37036ft 545kts
10-Sep-18 19:06 37.662468 -126.888468 77 36951ft 544kts
10-Sep-18 19:07 37.693571 -126.701147 77 36950ft 544kts
10-Sep-18 19:08 37.724327 -126.513929 78 36951ft 545kts
10-Sep-18 19:09 37.727937 -126.323797 97 36956ft 544kts
10-Sep-18 19:10 37.706497 -126.134369 101 36951ft 544kts
10-Sep-18 19:11 37.682837 -125.946147 101 36952ft 544kts
10-Sep-18 19:12 37.658967 -125.757635 101 36952ft 543kts
10-Sep-18 19:13 37.634938 -125.570202 101 36960ft 541kts
10-Sep-18 19:14 37.610629 -125.382992 101 36840ft 535kts
10-Sep-18 19:15 37.586667 -125.200755 101 35667ft 517kts
10-Sep-18 19:16 37.567068 -125.053351 101 34157ft 509kts
10-Sep-18 19:17 37.539770 -124.850408 101 32136ft 496kts
10-Sep-18 19:18 37.516797 -124.681655 101 30463ft 483kts
10-Sep-18 19:19 37.497903 -124.544215 100 29031ft 473kts
10-Sep-18 19:20 37.471759 -124.356014 100 26892ft 461kts
10-Sep-18 19:21 37.453381 -124.225043 100 25454ft 450kts
10-Sep-18 19:22 37.431733 -124.072140 100 23753ft 438kts
10-Sep-18 19:23 37.406940 -123.898755 100 21784ft 425kts
10-Sep-18 19:24 37.389538 -123.778130 100 20372ft 416kts
10-Sep-18 19:25 37.369055 -123.637213 100 18702ft 405kts
10-Sep-18 19:26 37.348803 -123.499101 100 17043ft 395kts
10-Sep-18 19:27 37.329170 -123.365965 100 15497ft 383kts
10-Sep-18 19:28 37.310270 -123.235835 97 13924ft 373kts
10-Sep-18 19:29 37.293372 -123.109350 99 12414ft 363kts
10-Sep-18 19:30 37.275128 -122.985630 98 10886ft 355kts
10-Sep-18 19:31 37.262547 -122.867792 82 9879ft 322kts
10-Sep-18 19:32 37.280576 -122.765015 70 9187ft 290kts
10-Sep-18 19:33 37.301067 -122.676568 70 8197ft 283kts
10-Sep-18 19:34 37.323542 -122.582093 70 7913ft 280kts
10-Sep-18 19:35 37.343386 -122.496050 70 6891ft 276kts
10-Sep-18 19:36 37.364316 -122.404628 71 6034ft 263kts
10-Sep-18 19:37 37.383534 -122.320568 70 6023ft 243kts
10-Sep-18 19:38 37.408498 -122.249405 53 5819ft 202kts
10-Sep-18 19:39 37.444467 -122.199389 29 4696ft 191kts
10-Sep-18 19:40 37.490308 -122.188514 342 3798ft 165kts
10-Sep-18 19:41 37.534174 -122.203954 338 2876ft 162kts
10-Sep-18 19:42 37.563400 -122.243404 299 2039ft 153kts
10-Sep-18 19:43 37.582323 -122.288296 297 1260ft 139kts
10-Sep-18 19:44 37.599604 -122.329269 294 588ft 127kts
10-Sep-18 19:45 37.616276 -122.369104 294 28ft 117kts
10-Sep-18 19:46 37.621754 -122.382963 225 26ft 7kts
10-Sep-18 19:47 37.620658 -122.384392 296 26ft 8kts
10-Sep-18 19:48 37.621636 -122.387147 227 26ft 1kts
10-Sep-18 19:49 37.620772 -122.387700 208 26ft 1kts
10-Sep-18 19:50 37.620759 -122.387708 208 26ft 0kts
10-Sep-18 19:51 37.620759 -122.387708 208 26ft 0kts

Navigation Log

Ident Type
Flight plan parsing failed, navigation log unavailable